Time;durP1;ratioP1;P1;durP2;ratioP2;P2;SDS_P1;SDS_P2;PMS_P1;PMS_P2;Temp;Humidity;BMP_temperature;BMP_pressure;BME280_temperature;BME280_humidity;BME280_pressure;Samples;Min_cycle;Max_cycle;Signal;HPM_P1;HPM_P2
2021/09/26 00:01:12;;;;;;;6.47;5.95;;;19.10;99.90;;;;;;5039521;28;20156;-82
2021/09/26 00:03:38;;;;;;;7.18;6.10;;;19.20;99.90;;;;;;5052763;28;20213;-79
2021/09/26 00:06:04;;;;;;;7.18;5.93;;;19.20;99.90;;;;;;5050184;28;20183;-79
2021/09/26 00:08:29;;;;;;;8.57;6.50;;;19.30;99.90;;;;;;5037167;28;20262;-78
2021/09/26 00:10:55;;;;;;;7.15;6.53;;;19.30;99.90;;;;;;5035808;28;20663;-77
2021/09/26 00:13:21;;;;;;;8.73;6.53;;;19.30;99.90;;;;;;5035004;28;20171;-80
2021/09/26 00:15:46;;;;;;;7.15;6.28;;;19.30;99.90;;;;;;5034610;28;20624;-80
2021/09/26 00:18:12;;;;;;;15.07;5.93;;;19.30;99.90;;;;;;5032592;28;20188;-79
2021/09/26 00:20:38;;;;;;;8.93;6.10;;;19.30;99.90;;;;;;5034075;28;20211;-83
2021/09/26 00:23:04;;;;;;;8.38;6.55;;;19.40;99.90;;;;;;5033888;28;20221;-80
2021/09/26 00:25:29;;;;;;;6.05;5.45;;;19.40;99.90;;;;;;5033842;28;20172;-78
2021/09/26 00:27:55;;;;;;;6.78;5.95;;;19.50;99.90;;;;;;5033793;28;20195;-80
2021/09/26 00:30:21;;;;;;;6.20;5.55;;;19.50;99.90;;;;;;5033632;28;20245;-81
2021/09/26 00:32:47;;;;;;;6.82;6.13;;;19.40;99.90;;;;;;5033682;28;20674;-79
2021/09/26 00:35:16;;;;;;;7.20;6.00;;;19.50;99.90;;;;;;5032542;28;20172;-79
2021/09/26 00:37:41;;;;;;;6.10;5.50;;;19.50;99.90;;;;;;5033518;28;20181;-81
2021/09/26 00:40:09;;;;;;;6.13;5.50;;;19.50;99.90;;;;;;5033719;28;20168;-78
2021/09/26 00:42:34;;;;;;;7.80;6.60;;;19.40;99.90;;;;;;5033622;28;20222;-82
2021/09/26 00:45:00;;;;;;;5.80;5.07;;;19.30;99.90;;;;;;5033434;28;20163;-81
2021/09/26 00:47:26;;;;;;;7.45;6.75;;;19.30;99.90;;;;;;5033622;28;20641;-82
2021/09/26 00:49:53;;;;;;;15.30;5.78;;;19.30;99.90;;;;;;5033563;28;20286;-81
2021/09/26 00:52:20;;;;;;;7.03;5.78;;;19.30;99.90;;;;;;5033213;28;20167;-80
2021/09/26 00:54:46;;;;;;;6.88;5.75;;;19.40;99.90;;;;;;5033366;28;20164;-77
2021/09/26 00:57:12;;;;;;;7.35;6.18;;;19.40;99.90;;;;;;5033380;28;20169;-81
2021/09/26 00:59:38;;;;;;;6.80;6.10;;;19.40;99.90;;;;;;5033448;28;20199;-79
2021/09/26 01:02:04;;;;;;;9.55;6.35;;;19.50;99.90;;;;;;5033034;28;20263;-80
2021/09/26 01:04:30;;;;;;;6.65;5.80;;;19.60;99.90;;;;;;5032919;28;20240;-77
2021/09/26 01:07:08;;;;;;;6.03;5.53;;;19.50;99.90;;;;;;5033160;28;20164;-80
2021/09/26 01:09:59;;;;;;;6.45;5.85;;;19.50;99.90;;;;;;5033136;28;20638;-82
2021/09/26 01:12:40;;;;;;;6.05;5.47;;;19.50;99.90;;;;;;5032570;28;20275;-81
2021/09/26 01:15:42;;;;;;;7.70;5.15;;;19.50;99.90;;;;;;5032994;28;20255;-81
2021/09/26 01:18:35;;;;;;;6.68;6.15;;;19.40;99.90;;;;;;5032676;28;20666;-79
2021/09/26 01:21:19;;;;;;;9.00;5.82;;;19.50;99.90;;;;;;5028833;28;20172;-82
2021/09/26 01:24:09;;;;;;;9.95;6.28;;;19.40;99.90;;;;;;5032771;28;20225;-83
2021/09/26 01:26:45;;;;;;;9.52;6.43;;;19.40;99.90;;;;;;5032666;28;20631;-82
2021/09/26 01:29:11;;;;;;;6.40;5.78;;;19.50;99.90;;;;;;5031589;28;20194;-79
2021/09/26 01:31:45;;;;;;;7.70;5.45;;;19.60;99.90;;;;;;5031752;28;20204;-77
2021/09/26 01:34:17;;;;;;;6.72;5.70;;;19.60;99.90;;;;;;5032677;28;20199;-79
2021/09/26 01:37:01;;;;;;;8.88;5.93;;;19.60;99.90;;;;;;5032468;28;20172;-79
2021/09/26 01:39:36;;;;;;;7.50;6.53;;;19.60;99.90;;;;;;5032510;28;20214;-78
2021/09/26 01:42:14;;;;;;;10.85;7.03;;;19.50;99.90;;;;;;5032546;28;20168;-83
2021/09/26 01:45:05;;;;;;;6.82;6.10;;;19.60;99.90;;;;;;5031380;28;20184;-80
2021/09/26 01:47:46;;;;;;;9.02;6.82;;;19.50;99.90;;;;;;5026146;28;20258;-80
2021/09/26 01:50:12;;;;;;;10.43;6.63;;;19.50;99.90;;;;;;5031979;28;20286;-79
2021/09/26 01:52:40;;;;;;;8.63;7.05;;;19.60;99.90;;;;;;5032606;28;20192;-78
2021/09/26 01:55:08;;;;;;;9.35;6.32;;;19.70;99.90;;;;;;5032794;28;20160;-81
2021/09/26 01:57:37;;;;;;;7.50;6.63;;;19.80;99.90;;;;;;5032290;28;20644;-80
2021/09/26 02:00:04;;;;;;;8.00;7.20;;;19.80;99.90;;;;;;5032261;28;20172;-78
2021/09/26 02:02:31;;;;;;;7.22;6.63;;;19.80;99.90;;;;;;5031889;28;20183;-81
2021/09/26 02:05:00;;;;;;;7.80;7.03;;;19.80;99.90;;;;;;5031974;28;20695;-79
2021/09/26 02:07:36;;;;;;;7.50;6.68;;;19.60;99.90;;;;;;5031974;28;20170;-79
2021/09/26 02:10:03;;;;;;;7.22;6.50;;;19.60;99.90;;;;;;5032232;28;20683;-76
2021/09/26 02:12:30;;;;;;;9.95;8.35;;;19.60;99.90;;;;;;5032870;28;20260;-80
2021/09/26 02:14:57;;;;;;;7.80;7.20;;;19.60;99.90;;;;;;5032194;28;20294;-82
2021/09/26 02:17:27;;;;;;;10.30;7.35;;;19.60;99.90;;;;;;5032252;28;20222;-80
2021/09/26 02:19:59;;;;;;;10.68;7.97;;;19.60;99.90;;;;;;5030460;28;20184;-79
2021/09/26 02:22:29;;;;;;;9.07;7.30;;;19.60;99.90;;;;;;5032134;28;20164;-78
2021/09/26 02:24:58;;;;;;;10.90;8.05;;;19.70;99.90;;;;;;5032147;28;20172;-78
2021/09/26 02:27:24;;;;;;;8.43;7.35;;;19.70;99.90;;;;;;5031865;28;20222;-78
2021/09/26 02:29:50;;;;;;;8.57;7.72;;;19.70;99.90;;;;;;5031796;28;20214;-78
2021/09/26 02:32:16;;;;;;;8.77;7.50;;;19.70;99.90;;;;;;5032272;28;20196;-77
2021/09/26 02:34:41;;;;;;;9.18;8.38;;;19.80;99.90;;;;;;5031963;28;20575;-80
2021/09/26 02:37:07;;;;;;;12.77;7.95;;;19.80;99.90;;;;;;5031865;28;20179;-78
2021/09/26 02:39:33;;;;;;;9.95;8.02;;;19.90;99.90;;;;;;5031815;28;20188;-81
2021/09/26 02:42:18;;;;;;;8.00;7.28;;;19.80;99.90;;;;;;5032670;28;20172;-82
2021/09/26 02:45:03;;;;;;;8.05;7.07;;;19.90;99.90;;;;;;5034863;28;20168;-78
2021/09/26 02:47:37;;;;;;;8.30;7.47;;;19.90;99.90;;;;;;5035005;28;20643;-77
2021/09/26 02:50:03;;;;;;;8.32;7.55;;;20.00;99.90;;;;;;5035021;28;20187;-77
2021/09/26 02:52:29;;;;;;;15.80;7.88;;;20.10;99.90;;;;;;5034059;28;20176;-78
2021/09/26 02:54:55;;;;;;;9.07;7.82;;;20.00;99.90;;;;;;5035602;28;20206;-78
2021/09/26 02:57:22;;;;;;;9.02;8.02;;;20.00;99.90;;;;;;5035519;28;20172;-78
2021/09/26 02:59:49;;;;;;;11.55;8.50;;;19.90;99.90;;;;;;5035054;28;20267;-77
2021/09/26 03:02:15;;;;;;;10.98;8.02;;;19.80;99.90;;;;;;5035071;28;20199;-79
2021/09/26 03:04:45;;;;;;;10.95;7.32;;;19.80;99.90;;;;;;5034545;28;20538;-77
2021/09/26 03:07:13;;;;;;;11.98;7.95;;;19.80;99.90;;;;;;5035349;28;20175;-78
2021/09/26 03:09:40;;;;;;;11.30;7.70;;;19.80;99.90;;;;;;5035430;28;20180;-78
2021/09/26 03:12:16;;;;;;;8.18;7.47;;;19.80;99.90;;;;;;5035177;28;20172;-77
2021/09/26 03:14:41;;;;;;;8.93;7.53;;;19.60;99.90;;;;;;5033994;28;20575;-77
2021/09/26 03:17:08;;;;;;;10.32;7.85;;;19.70;99.90;;;;;;5034821;28;20164;-78
2021/09/26 03:19:34;;;;;;;9.93;8.00;;;19.60;99.90;;;;;;5033089;28;20550;-80
2021/09/26 03:22:03;;;;;;;9.27;7.65;;;19.70;99.90;;;;;;5034743;28;20163;-78
2021/09/26 03:24:30;;;;;;;12.60;8.15;;;19.50;99.90;;;;;;5034431;28;20167;-78
2021/09/26 03:26:57;;;;;;;11.00;7.63;;;19.50;99.90;;;;;;5034597;28;20255;-80
2021/09/26 03:29:23;;;;;;;8.35;7.55;;;19.50;99.90;;;;;;5034689;28;20191;-78
2021/09/26 03:31:49;;;;;;;16.20;7.95;;;19.40;99.90;;;;;;5034533;28;20207;-78
2021/09/26 03:34:15;;;;;;;8.77;7.65;;;19.50;99.90;;;;;;5034587;28;20176;-78
2021/09/26 03:36:41;;;;;;;14.85;7.95;;;19.40;99.90;;;;;;5034044;28;20178;-79
2021/09/26 03:39:06;;;;;;;8.38;7.60;;;19.40;99.90;;;;;;5034609;28;20266;-78
2021/09/26 03:41:32;;;;;;;9.25;8.02;;;19.30;99.90;;;;;;5034439;28;20176;-78
2021/09/26 03:43:58;;;;;;;11.32;9.00;;;19.20;99.90;;;;;;5034216;28;20164;-78
2021/09/26 03:46:23;;;;;;;9.73;8.10;;;19.20;99.90;;;;;;5034252;28;20199;-78
2021/09/26 03:48:49;;;;;;;12.80;8.52;;;19.10;99.90;;;;;;5034098;28;20192;-78
2021/09/26 03:51:15;;;;;;;11.77;8.48;;;19.10;99.90;;;;;;5034380;28;20207;-77
2021/09/26 03:53:40;;;;;;;10.40;9.07;;;19.10;99.90;;;;;;5033337;28;20652;-78
2021/09/26 03:56:06;;;;;;;13.93;8.32;;;19.10;99.90;;;;;;5034334;28;20520;-78
2021/09/26 03:58:32;;;;;;;11.02;8.90;;;19.20;99.90;;;;;;5034259;28;20698;-78
2021/09/26 04:00:58;;;;;;;9.63;8.75;;;19.00;99.90;;;;;;5033889;28;20168;-78
2021/09/26 04:03:24;;;;;;;9.18;8.30;;;19.00;99.90;;;;;;5034131;28;20198;-79
2021/09/26 04:05:49;;;;;;;9.07;8.25;;;19.00;99.90;;;;;;5033902;28;20651;-78
2021/09/26 04:08:15;;;;;;;11.02;9.25;;;19.00;99.90;;;;;;5033611;28;21203;-78
2021/09/26 04:10:41;;;;;;;10.85;9.80;;;18.90;99.90;;;;;;5033764;28;20211;-78
2021/09/26 04:13:07;;;;;;;9.57;8.57;;;18.90;99.90;;;;;;5033879;28;20217;-78
2021/09/26 04:15:33;;;;;;;12.10;9.93;;;18.90;99.90;;;;;;5033752;28;20168;-78
2021/09/26 04:17:58;;;;;;;11.95;10.13;;;18.90;99.90;;;;;;5033332;28;20184;-78
2021/09/26 04:20:24;;;;;;;9.45;8.57;;;18.90;99.90;;;;;;5033530;28;20519;-78
2021/09/26 04:22:49;;;;;;;9.75;8.82;;;19.00;99.90;;;;;;5033726;28;20628;-78
2021/09/26 04:25:15;;;;;;;9.38;8.48;;;18.90;99.90;;;;;;5033515;28;20167;-77
2021/09/26 04:27:41;;;;;;;10.00;8.98;;;18.90;99.90;;;;;;5033534;28;20172;-78
2021/09/26 04:30:07;;;;;;;9.63;8.60;;;18.90;99.90;;;;;;5033482;28;20559;-78
2021/09/26 04:32:34;;;;;;;11.20;10.05;;;18.90;99.90;;;;;;5033279;28;20625;-77
2021/09/26 04:35:00;;;;;;;11.07;9.98;;;18.90;99.90;;;;;;5032959;28;20164;-77
2021/09/26 04:37:26;;;;;;;12.50;10.27;;;19.00;99.90;;;;;;5033294;28;20164;-78
2021/09/26 04:39:51;;;;;;;11.73;9.75;;;19.10;99.90;;;;;;5033351;28;20183;-78
2021/09/26 04:42:17;;;;;;;9.82;8.93;;;19.00;99.90;;;;;;5033396;28;20632;-78
2021/09/26 04:44:43;;;;;;;12.68;9.65;;;19.10;99.90;;;;;;5033327;28;20171;-77
2021/09/26 04:47:08;;;;;;;10.60;9.57;;;19.20;99.90;;;;;;5033145;28;20171;-79
2021/09/26 04:49:34;;;;;;;11.57;9.73;;;19.30;99.90;;;;;;5032898;28;20184;-79
2021/09/26 04:52:00;;;;;;;13.05;9.90;;;19.20;99.90;;;;;;5032828;28;20238;-79
2021/09/26 04:54:27;;;;;;;11.80;9.57;;;19.20;99.90;;;;;;5033091;28;20242;-77
2021/09/26 04:56:53;;;;;;;14.20;9.88;;;19.10;99.90;;;;;;5033285;28;20184;-81
2021/09/26 04:59:19;;;;;;;11.85;10.27;;;19.00;99.90;;;;;;5032437;28;20188;-78
2021/09/26 05:01:45;;;;;;;12.57;10.48;;;18.90;99.90;;;;;;5032748;28;20176;-79
2021/09/26 05:04:11;;;;;;;12.07;10.70;;;19.00;99.90;;;;;;5032765;28;20175;-79
2021/09/26 05:06:37;;;;;;;14.20;11.20;;;19.00;99.90;;;;;;5032444;28;20515;-78
2021/09/26 05:09:03;;;;;;;13.27;11.35;;;18.80;99.90;;;;;;5032996;28;20270;-78
2021/09/26 05:11:28;;;;;;;17.52;11.43;;;18.60;99.90;;;;;;5032741;28;20213;-78
2021/09/26 05:13:54;;;;;;;15.95;11.85;;;18.50;99.90;;;;;;5032339;28;20192;-78
2021/09/26 05:16:20;;;;;;;15.45;11.55;;;18.60;99.90;;;;;;5032647;28;20251;-79
2021/09/26 05:18:45;;;;;;;12.88;11.65;;;18.60;99.90;;;;;;5032444;28;20180;-80
2021/09/26 05:21:11;;;;;;;14.73;11.88;;;18.60;99.90;;;;;;5031369;28;20176;-79
2021/09/26 05:23:38;;;;;;;14.30;11.32;;;18.50;99.90;;;;;;5033010;28;20226;-80
2021/09/26 05:26:04;;;;;;;14.10;11.05;;;18.40;99.90;;;;;;5032670;28;20172;-79
2021/09/26 05:28:30;;;;;;;14.10;12.10;;;18.50;99.90;;;;;;5032584;28;20230;-79
2021/09/26 05:30:55;;;;;;;15.30;12.40;;;18.50;99.90;;;;;;5032291;28;20207;-79
2021/09/26 05:33:21;;;;;;;12.80;11.30;;;18.50;99.90;;;;;;5032410;28;20167;-79
2021/09/26 05:35:48;;;;;;;18.73;11.65;;;18.50;99.90;;;;;;5032310;28;20233;-79
2021/09/26 05:38:14;;;;;;;16.67;12.60;;;18.50;99.90;;;;;;5032342;28;20214;-77
2021/09/26 05:40:39;;;;;;;14.25;11.40;;;18.50;99.90;;;;;;5032216;28;20620;-79
2021/09/26 05:43:05;;;;;;;14.88;12.43;;;18.30;99.90;;;;;;5032297;28;20204;-78
2021/09/26 05:45:31;;;;;;;18.25;14.00;;;18.30;99.90;;;;;;5031137;28;20203;-80
2021/09/26 05:47:56;;;;;;;18.13;13.80;;;18.30;99.90;;;;;;5032256;28;20179;-78
2021/09/26 05:50:22;;;;;;;19.63;12.95;;;18.20;99.90;;;;;;5031979;28;20757;-78
2021/09/26 05:52:48;;;;;;;20.75;13.95;;;18.20;99.90;;;;;;5032546;28;20171;-79
2021/09/26 05:55:14;;;;;;;17.95;14.02;;;18.30;99.90;;;;;;5032388;28;20171;-79
2021/09/26 05:57:40;;;;;;;21.02;13.52;;;18.50;99.90;;;;;;5031934;28;20185;-79
2021/09/26 06:00:06;;;;;;;19.75;13.52;;;18.50;99.90;;;;;;5030969;28;20314;-80
2021/09/26 06:02:33;;;;;;;18.73;14.20;;;18.50;99.90;;;;;;5031730;28;20193;-79
2021/09/26 06:04:59;;;;;;;24.55;14.25;;;18.50;99.90;;;;;;5032587;28;20218;-82
2021/09/26 06:07:25;;;;;;;22.08;15.10;;;18.50;99.90;;;;;;5031095;28;20175;-79
2021/09/26 06:09:50;;;;;;;25.88;15.15;;;18.50;99.90;;;;;;5032349;28;20244;-79
2021/09/26 06:12:16;;;;;;;21.08;14.93;;;18.60;99.90;;;;;;5031800;28;20255;-79
2021/09/26 06:14:42;;;;;;;22.20;16.42;;;18.60;99.90;;;;;;5030873;28;20628;-78
2021/09/26 06:17:08;;;;;;;25.67;16.67;;;18.50;99.90;;;;;;5033339;28;20199;-79
2021/09/26 06:19:34;;;;;;;29.10;17.38;;;18.50;99.90;;;;;;5035824;28;20235;-80
2021/09/26 06:22:00;;;;;;;24.92;17.52;;;18.40;99.90;;;;;;5035778;28;20168;-79
2021/09/26 06:24:26;;;;;;;28.73;19.25;;;18.30;99.90;;;;;;5035580;28;20217;-81
2021/09/26 06:26:52;;;;;;;31.10;20.25;;;18.30;99.90;;;;;;5036231;28;20251;-82
2021/09/26 06:29:17;;;;;;;35.92;21.20;;;18.30;99.90;;;;;;5035916;28;20176;-82
2021/09/26 06:31:47;;;;;;;33.40;18.63;;;18.20;99.90;;;;;;5035724;28;20207;-82
2021/09/26 06:34:13;;;;;;;32.67;20.70;;;18.30;99.90;;;;;;5036285;28;20591;-86
2021/09/26 06:36:39;;;;;;;37.95;21.40;;;18.60;99.90;;;;;;5035934;28;20192;-81
2021/09/26 06:39:05;;;;;;;42.63;21.95;;;18.50;99.90;;;;;;5035619;28;20500;-83
2021/09/26 06:41:30;;;;;;;34.15;21.23;;;18.40;99.90;;;;;;5035047;28;20182;-79
2021/09/26 06:43:56;;;;;;;36.50;22.35;;;18.50;99.90;;;;;;5036063;28;20180;-80
2021/09/26 06:46:22;;;;;;;35.17;22.80;;;18.50;99.90;;;;;;5035919;28;20172;-79
2021/09/26 06:48:48;;;;;;;37.78;22.67;;;18.70;99.90;;;;;;5035706;28;20184;-82
2021/09/26 06:51:14;;;;;;;41.25;22.75;;;18.80;99.90;;;;;;5035431;28;20705;-82
2021/09/26 06:53:40;;;;;;;32.42;22.20;;;18.60;99.90;;;;;;5035506;28;20161;-82
2021/09/26 06:56:06;;;;;;;39.40;23.88;;;18.70;99.90;;;;;;5035320;28;20218;-83
2021/09/26 06:58:31;;;;;;;36.90;23.23;;;18.80;99.90;;;;;;5035239;28;20740;-81
2021/09/26 07:00:57;;;;;;;35.50;23.73;;;18.90;99.90;;;;;;5032327;28;20172;-81
2021/09/26 07:03:23;;;;;;;32.30;21.60;;;18.90;99.90;;;;;;5027886;28;20191;-82
2021/09/26 07:05:48;;;;;;;34.13;23.65;;;18.90;99.90;;;;;;5033525;28;20620;-84
2021/09/26 07:08:14;;;;;;;31.95;23.10;;;18.90;99.90;;;;;;5031401;28;20203;-81
2021/09/26 07:10:40;;;;;;;28.65;20.90;;;19.10;99.90;;;;;;5033018;28;20198;-80
2021/09/26 07:13:06;;;;;;;36.75;23.35;;;19.10;99.90;;;;;;5048161;28;20186;-80
2021/09/26 07:15:31;;;;;;;30.70;20.98;;;19.20;99.90;;;;;;5053783;28;20250;-81
2021/09/26 07:17:58;;;;;;;27.80;20.50;;;19.30;99.90;;;;;;5052182;28;20167;-80
2021/09/26 07:20:28;;;;;;;35.55;22.05;;;19.30;99.90;;;;;;5053213;28;20159;-79
2021/09/26 07:22:59;;;;;;;31.75;22.00;;;19.30;99.90;;;;;;5053154;28;20176;-80
2021/09/26 07:25:27;;;;;;;33.90;22.38;;;19.30;99.90;;;;;;5053388;28;20186;-80
2021/09/26 07:27:53;;;;;;;32.92;22.52;;;19.30;99.90;;;;;;5053489;28;20181;-83
2021/09/26 07:30:19;;;;;;;34.75;23.52;;;19.60;99.90;;;;;;5044929;28;20282;-81
2021/09/26 07:32:45;;;;;;;37.28;21.60;;;19.70;99.90;;;;;;5044985;28;20258;-81
2021/09/26 07:35:11;;;;;;;34.40;20.92;;;19.90;99.90;;;;;;5052305;28;20175;-84
2021/09/26 07:37:37;;;;;;;30.00;22.05;;;20.10;99.90;;;;;;5052371;28;20280;-82
2021/09/26 07:40:06;;;;;;;32.15;21.77;;;20.10;99.90;;;;;;5048407;28;20199;-82
2021/09/26 07:42:32;;;;;;;36.20;23.27;;;20.10;99.90;;;;;;5019259;28;20192;-78
2021/09/26 07:45:02;;;;;;;35.15;21.83;;;19.90;99.90;;;;;;5016776;28;20580;-78
2021/09/26 07:47:28;;;;;;;27.02;20.98;;;19.90;99.90;;;;;;5052286;28;20199;-76
2021/09/26 07:49:55;;;;;;;30.90;22.42;;;19.90;99.90;;;;;;5049735;28;20581;-77
2021/09/26 07:52:21;;;;;;;34.15;22.38;;;19.90;99.90;;;;;;5041261;28;20182;-76
2021/09/26 07:54:47;;;;;;;30.50;22.05;;;19.90;99.90;;;;;;5052546;28;20168;-77
2021/09/26 07:57:13;;;;;;;36.53;22.02;;;19.90;99.90;;;;;;5052279;28;20206;-76
2021/09/26 07:59:40;;;;;;;36.00;23.35;;;20.00;99.90;;;;;;5051609;28;20663;-76
2021/09/26 08:02:06;;;;;;;31.63;21.85;;;20.10;99.90;;;;;;5033690;28;20278;-79
2021/09/26 08:04:32;;;;;;;35.45;22.08;;;20.30;99.90;;;;;;5017029;28;20740;-79
2021/09/26 08:06:58;;;;;;;26.52;20.80;;;20.40;99.90;;;;;;5022086;28;20202;-80
2021/09/26 08:09:23;;;;;;;31.92;19.58;;;20.50;99.90;;;;;;5033111;28;20188;-80
2021/09/26 08:11:49;;;;;;;29.70;21.23;;;20.60;99.90;;;;;;5038763;28;20237;-79
2021/09/26 08:14:15;;;;;;;36.65;19.05;;;20.80;99.90;;;;;;5051568;28;20167;-76
2021/09/26 08:16:40;;;;;;;25.33;19.20;;;20.90;99.90;;;;;;5052569;28;20164;-75
2021/09/26 08:19:06;;;;;;;27.50;20.17;;;21.30;99.90;;;;;;5050609;28;20198;-75
2021/09/26 08:21:32;;;;;;;25.83;18.80;;;21.70;99.90;;;;;;5051870;28;20198;-76
2021/09/26 08:23:57;;;;;;;25.60;18.48;;;21.60;99.90;;;;;;5051999;28;20198;-76
2021/09/26 08:26:23;;;;;;;26.42;19.00;;;21.70;99.90;;;;;;5052292;28;20163;-77
2021/09/26 08:28:49;;;;;;;22.88;18.05;;;21.90;99.90;;;;;;5051205;28;20187;-75
2021/09/26 08:31:15;;;;;;;22.02;18.00;;;21.60;99.90;;;;;;5052966;28;20256;-76
2021/09/26 08:37:02;;;;;;;17.63;15.57;;;21.80;99.90;;;;;;5053665;28;20178;-76
2021/09/26 08:39:28;;;;;;;22.52;16.20;;;21.60;99.90;;;;;;5052674;28;20195;-76
2021/09/26 08:41:55;;;;;;;22.98;14.98;;;21.70;99.90;;;;;;5053217;28;20246;-76
2021/09/26 08:44:25;;;;;;;18.38;15.30;;;21.50;99.90;;;;;;5052994;28;20678;-75
2021/09/26 08:46:52;;;;;;;17.10;15.30;;;21.50;99.90;;;;;;5053120;28;20159;-76
2021/09/26 08:49:18;;;;;;;20.20;15.73;;;21.50;99.90;;;;;;5053019;28;20199;-75
2021/09/26 08:51:48;;;;;;;17.38;14.70;;;21.50;99.90;;;;;;5052753;28;20492;-76
2021/09/26 08:54:14;;;;;;;18.65;15.85;;;21.40;99.90;;;;;;5052440;28;20171;-75
2021/09/26 08:56:41;;;;;;;21.60;16.30;;;21.30;99.90;;;;;;5052398;28;20258;-75
2021/09/26 08:59:09;;;;;;;22.05;15.27;;;21.10;99.90;;;;;;5052577;28;20183;-75
2021/09/26 09:01:35;;;;;;;21.05;16.10;;;21.30;99.90;;;;;;5053005;28;20195;-75
2021/09/26 09:04:00;;;;;;;17.67;15.27;;;21.40;99.90;;;;;;5052461;28;20210;-76
2021/09/26 09:06:47;;;;;;;23.67;15.05;;;21.60;99.90;;;;;;5051330;28;20178;-77
2021/09/26 09:09:19;;;;;;;17.23;15.40;;;21.70;99.90;;;;;;5052293;28;20658;-75
2021/09/26 09:11:59;;;;;;;22.58;15.48;;;21.80;99.90;;;;;;5052548;28;20207;-76
2021/09/26 09:14:25;;;;;;;18.60;15.25;;;21.90;99.90;;;;;;5052604;28;20163;-75
2021/09/26 09:16:55;;;;;;;21.92;16.33;;;21.90;99.90;;;;;;5052107;28;20174;-76
2021/09/26 09:19:23;;;;;;;16.65;13.88;;;21.90;99.90;;;;;;5052209;28;20187;-75
2021/09/26 09:22:06;;;;;;;15.23;13.70;;;22.00;99.90;;;;;;5050983;28;20254;-75
2021/09/26 09:24:40;;;;;;;14.98;13.32;;;22.00;99.90;;;;;;5052245;28;20223;-76
2021/09/26 09:27:06;;;;;;;15.88;14.20;;;21.90;99.90;;;;;;5052144;28;20167;-75
2021/09/26 09:29:37;;;;;;;17.02;13.95;;;21.90;99.90;;;;;;5050837;28;20198;-76
2021/09/26 09:32:13;;;;;;;18.13;13.88;;;22.10;99.90;;;;;;5052129;28;20548;-76
2021/09/26 09:34:40;;;;;;;14.10;12.63;;;22.00;99.90;;;;;;5051989;28;20236;-75
2021/09/26 09:37:12;;;;;;;18.85;13.00;;;21.70;99.90;;;;;;5052154;28;20623;-76
2021/09/26 09:39:39;;;;;;;14.90;13.07;;;22.00;99.90;;;;;;5051570;28;20663;-76
2021/09/26 09:42:20;;;;;;;13.73;12.40;;;22.00;99.90;;;;;;5051927;28;20631;-75
2021/09/26 09:44:46;;;;;;;17.42;13.13;;;22.00;99.90;;;;;;5050590;28;20178;-76
2021/09/26 09:47:12;;;;;;;13.32;11.15;;;22.00;99.90;;;;;;5051868;28;20178;-75
2021/09/26 09:49:52;;;;;;;13.20;10.73;;;22.10;99.90;;;;;;5051979;28;20183;-75
2021/09/26 09:52:18;;;;;;;16.45;10.27;;;22.20;99.90;;;;;;5052237;28;20206;-75
2021/09/26 09:54:49;;;;;;;12.45;11.15;;;22.30;99.90;;;;;;5056229;28;20647;-75
2021/09/26 09:57:18;;;;;;;10.80;9.70;;;22.20;99.90;;;;;;5056036;28;20179;-75
2021/09/26 09:59:46;;;;;;;15.35;9.45;;;22.20;99.90;;;;;;5055831;28;20662;-76
2021/09/26 10:02:14;;;;;;;17.90;10.38;;;22.00;99.90;;;;;;5056499;28;20233;-79
2021/09/26 10:04:45;;;;;;;9.00;8.23;;;22.00;99.90;;;;;;5056133;28;20163;-76
2021/09/26 10:07:28;;;;;;;15.55;10.02;;;22.00;99.90;;;;;;5055012;28;20175;-75
2021/09/26 10:09:55;;;;;;;10.57;9.57;;;22.40;99.90;;;;;;5054471;28;20194;-76
2021/09/26 10:12:30;;;;;;;9.98;9.18;;;22.60;99.90;;;;;;5055607;28;20340;-76
2021/09/26 10:15:02;;;;;;;13.15;10.82;;;22.90;99.90;;;;;;5055645;28;20672;-77
2021/09/26 10:17:29;;;;;;;9.70;8.80;;;22.90;99.90;;;;;;5055690;28;20738;-77
2021/09/26 10:19:55;;;;;;;13.35;9.80;;;23.10;99.90;;;;;;5055049;28;20241;-81
2021/09/26 10:22:22;;;;;;;9.27;8.43;;;23.40;99.90;;;;;;5054297;28;20167;-78
2021/09/26 10:24:53;;;;;;;9.88;8.88;;;23.50;99.90;;;;;;5056127;28;20682;-78
2021/09/26 10:27:22;;;;;;;10.70;9.65;;;23.60;99.90;;;;;;5054787;28;20171;-78
2021/09/26 10:30:07;;;;;;;10.30;9.30;;;23.50;99.90;;;;;;5055130;28;20575;-79
2021/09/26 10:32:34;;;;;;;10.02;9.00;;;23.60;99.90;;;;;;5055449;28;20201;-79
2021/09/26 10:35:01;;;;;;;9.05;8.15;;;23.60;99.90;;;;;;5055599;28;20167;-82
2021/09/26 10:37:28;;;;;;;10.10;7.70;;;23.60;99.90;;;;;;5055600;28;20163;-78
2021/09/26 10:39:54;;;;;;;10.02;8.38;;;23.50;99.90;;;;;;5055492;28;20260;-81
2021/09/26 10:42:24;;;;;;;8.60;7.85;;;23.60;99.90;;;;;;5054397;28;20191;-80
2021/09/26 10:45:00;;;;;;;8.55;7.72;;;23.00;99.90;;;;;;5054726;28;20159;-79
2021/09/26 10:47:28;;;;;;;7.13;6.10;;;22.80;99.90;;;;;;5055334;28;20248;-82
2021/09/26 10:50:07;;;;;;;10.55;5.97;;;22.90;99.90;;;;;;5055098;28;20199;-81
2021/09/26 10:52:34;;;;;;;8.23;5.65;;;23.20;99.90;;;;;;5055231;28;20193;-80
2021/09/26 10:55:18;;;;;;;9.75;6.45;;;23.10;99.90;;;;;;5055097;28;20167;-78
2021/09/26 10:57:53;;;;;;;6.57;6.07;;;23.30;99.90;;;;;;5053731;28;20572;-78
2021/09/26 11:00:42;;;;;;;6.80;6.07;;;23.40;99.90;;;;;;5053813;28;20253;-78
2021/09/26 11:03:20;;;;;;;7.35;6.65;;;23.00;99.90;;;;;;5054203;28;20183;-77
2021/09/26 11:05:52;;;;;;;9.82;6.35;;;23.10;99.90;;;;;;5055086;28;20163;-77
2021/09/26 11:08:24;;;;;;;15.57;5.95;;;23.30;99.90;;;;;;5053594;28;20191;-77
2021/09/26 11:11:00;;;;;;;6.60;5.97;;;23.40;99.90;;;;;;5054794;28;20210;-79
2021/09/26 11:13:25;;;;;;;6.70;5.93;;;23.50;99.90;;;;;;5054785;28;20171;-78
2021/09/26 11:16:02;;;;;;;6.53;5.40;;;23.50;99.90;;;;;;5055163;28;20178;-80
2021/09/26 11:19:11;;;;;;;6.05;5.45;;;22.90;99.90;;;;;;5054938;28;20246;-81
2021/09/26 11:21:37;;;;;;;11.88;7.00;;;23.10;99.90;;;;;;5053821;28;20582;-81
2021/09/26 11:24:21;;;;;;;6.63;5.95;;;23.30;99.90;;;;;;5055113;28;20175;-80
2021/09/26 11:27:08;;;;;;;13.43;5.65;;;23.60;99.90;;;;;;5055045;28;20192;-83
2021/09/26 11:29:43;;;;;;;9.90;6.20;;;23.90;99.90;;;;;;5054792;28;20241;-83
2021/09/26 11:32:23;;;;;;;5.13;4.35;;;23.90;99.90;;;;;;5053185;28;20210;-81
2021/09/26 11:34:52;;;;;;;4.97;4.57;;;23.90;99.90;;;;;;5054665;28;20167;-79
2021/09/26 11:37:38;;;;;;;7.55;4.88;;;24.10;99.90;;;;;;5054448;28;20229;-82
2021/09/26 11:40:10;;;;;;;6.07;5.50;;;23.80;99.90;;;;;;5055186;28;20179;-82
2021/09/26 11:42:38;;;;;;;4.95;4.32;;;24.00;99.90;;;;;;5054950;28;20262;-81
2021/09/26 11:45:15;;;;;;;10.32;4.28;;;24.00;99.90;;;;;;5054966;28;20172;-81
2021/09/26 11:47:41;;;;;;;12.00;4.45;;;23.80;99.90;;;;;;5053147;28;20163;-80
2021/09/26 11:50:12;;;;;;;9.60;4.50;;;23.50;99.90;;;;;;5054329;28;20163;-83
2021/09/26 11:52:40;;;;;;;4.40;4.00;;;23.70;99.90;;;;;;5054053;28;20170;-82
2021/09/26 11:55:07;;;;;;;4.43;4.03;;;24.10;99.90;;;;;;5054233;28;20182;-81
2021/09/26 11:57:33;;;;;;;4.93;4.47;;;24.30;99.90;;;;;;5054506;28;20232;-83
2021/09/26 11:59:59;;;;;;;3.83;3.50;;;24.20;99.90;;;;;;5053411;28;20183;-80
2021/09/26 12:02:25;;;;;;;4.45;4.05;;;23.90;99.90;;;;;;5053902;28;20186;-80
2021/09/26 12:04:51;;;;;;;7.10;4.47;;;23.90;99.90;;;;;;5052557;28;20213;-82
2021/09/26 12:07:16;;;;;;;6.05;5.45;;;23.90;99.90;;;;;;5054078;28;20167;-79
2021/09/26 12:09:43;;;;;;;8.77;3.75;;;24.20;99.90;;;;;;5054254;28;20539;-81
2021/09/26 12:12:10;;;;;;;5.80;3.70;;;24.40;99.90;;;;;;5054164;28;20222;-81
2021/09/26 12:14:38;;;;;;;5.18;3.90;;;24.30;99.90;;;;;;5052963;28;20163;-79
2021/09/26 12:17:06;;;;;;;3.67;3.38;;;24.30;99.90;;;;;;5054270;28;20179;-79
2021/09/26 12:19:34;;;;;;;4.97;4.10;;;24.20;99.90;;;;;;5053851;28;20581;-79
2021/09/26 12:22:11;;;;;;;5.82;4.22;;;24.50;99.90;;;;;;5053986;28;20167;-80
2021/09/26 12:24:37;;;;;;;7.72;4.10;;;24.50;99.90;;;;;;5053802;28;20217;-82
2021/09/26 12:27:23;;;;;;;5.90;3.47;;;24.50;99.90;;;;;;5052192;28;20175;-77
2021/09/26 12:29:58;;;;;;;8.18;3.28;;;24.50;99.90;;;;;;5053414;28;20639;-82
2021/09/26 12:32:31;;;;;;;4.05;3.65;;;24.20;99.90;;;;;;5053548;28;20696;-82
2021/09/26 12:34:59;;;;;;;5.63;3.80;;;24.30;99.90;;;;;;5053592;28;20195;-79
2021/09/26 12:37:27;;;;;;;4.03;3.58;;;24.30;99.90;;;;;;5053444;28;20163;-80
2021/09/26 12:39:56;;;;;;;4.78;4.18;;;24.20;99.90;;;;;;5053200;28;20339;-81
2021/09/26 12:42:25;;;;;;;4.28;3.72;;;24.40;99.90;;;;;;5053364;28;20554;-82
2021/09/26 12:44:51;;;;;;;3.40;3.10;;;24.40;99.90;;;;;;5053320;28;20242;-81
2021/09/26 12:47:22;;;;;;;2.80;2.60;;;24.40;99.90;;;;;;5053102;28;20251;-80
2021/09/26 12:49:48;;;;;;;3.45;3.15;;;24.50;99.90;;;;;;5052824;28;20237;-78